sensor_id;sensor_type;location;lat;lon;timestamp;temperature;humidity
19242;DHT22;9755;47.790;9.620;2022-12-20T00:01:07;-1.40;99.90
19242;DHT22;9755;47.790;9.620;2022-12-20T00:03:34;-1.30;99.90
19242;DHT22;9755;47.790;9.620;2022-12-20T00:06:01;-1.30;99.90
19242;DHT22;9755;47.790;9.620;2022-12-20T00:08:28;-1.30;99.90
19242;DHT22;9755;47.790;9.620;2022-12-20T00:10:56;-1.20;99.90
19242;DHT22;9755;47.790;9.620;2022-12-20T00:13:25;-1.20;99.90
19242;DHT22;9755;47.790;9.620;2022-12-20T00:16:04;-1.20;99.90
19242;DHT22;9755;47.790;9.620;2022-12-20T00:18:32;-1.20;99.90
19242;DHT22;9755;47.790;9.620;2022-12-20T00:20:59;-1.30;99.90
19242;DHT22;9755;47.790;9.620;2022-12-20T00:23:27;-1.20;99.90
19242;DHT22;9755;47.790;9.620;2022-12-20T00:26:00;-1.30;99.90
19242;DHT22;9755;47.790;9.620;2022-12-20T00:28:27;-1.40;99.90
19242;DHT22;9755;47.790;9.620;2022-12-20T00:30:54;-1.40;99.90
19242;DHT22;9755;47.790;9.620;2022-12-20T00:33:23;-1.50;99.90
19242;DHT22;9755;47.790;9.620;2022-12-20T00:35:51;-1.50;99.90
19242;DHT22;9755;47.790;9.620;2022-12-20T00:38:18;-1.50;99.90
19242;DHT22;9755;47.790;9.620;2022-12-20T00:40:45;-1.50;99.90
19242;DHT22;9755;47.790;9.620;2022-12-20T00:43:12;-1.40;99.90
19242;DHT22;9755;47.790;9.620;2022-12-20T00:45:39;-1.30;99.90
19242;DHT22;9755;47.790;9.620;2022-12-20T00:48:06;-1.30;99.90
19242;DHT22;9755;47.790;9.620;2022-12-20T00:50:34;-1.30;99.90
19242;DHT22;9755;47.790;9.620;2022-12-20T00:53:02;-1.20;99.90
19242;DHT22;9755;47.790;9.620;2022-12-20T00:55:29;-1.20;99.90
19242;DHT22;9755;47.790;9.620;2022-12-20T00:57:56;-1.20;99.90
19242;DHT22;9755;47.790;9.620;2022-12-20T01:00:23;-1.10;99.90
19242;DHT22;9755;47.790;9.620;2022-12-20T01:02:50;-1.10;99.90
19242;DHT22;9755;47.790;9.620;2022-12-20T01:05:17;-1.00;99.90
19242;DHT22;9755;47.790;9.620;2022-12-20T01:07:45;-1.10;99.90
19242;DHT22;9755;47.790;9.620;2022-12-20T01:10:13;-1.10;99.90
19242;DHT22;9755;47.790;9.620;2022-12-20T01:12:40;-1.00;99.90
19242;DHT22;9755;47.790;9.620;2022-12-20T01:15:08;-1.00;99.90
19242;DHT22;9755;47.790;9.620;2022-12-20T01:17:35;-1.00;99.90
19242;DHT22;9755;47.790;9.620;2022-12-20T01:20:03;-1.00;99.90
19242;DHT22;9755;47.790;9.620;2022-12-20T01:22:30;-1.00;99.90
19242;DHT22;9755;47.790;9.620;2022-12-20T01:24:59;-1.00;99.90
19242;DHT22;9755;47.790;9.620;2022-12-20T01:27:26;-1.00;99.90
19242;DHT22;9755;47.790;9.620;2022-12-20T01:29:54;-1.00;99.90
19242;DHT22;9755;47.790;9.620;2022-12-20T01:32:21;-1.00;99.90
19242;DHT22;9755;47.790;9.620;2022-12-20T01:34:48;-1.00;99.90
19242;DHT22;9755;47.790;9.620;2022-12-20T01:37:15;-1.00;99.90
19242;DHT22;9755;47.790;9.620;2022-12-20T01:39:42;-1.00;99.90
19242;DHT22;9755;47.790;9.620;2022-12-20T01:42:14;-1.10;99.90
19242;DHT22;9755;47.790;9.620;2022-12-20T01:44:56;-1.20;99.90
19242;DHT22;9755;47.790;9.620;2022-12-20T01:47:25;-1.20;99.90
19242;DHT22;9755;47.790;9.620;2022-12-20T01:49:54;-1.10;99.90
19242;DHT22;9755;47.790;9.620;2022-12-20T01:52:27;-1.10;99.90
19242;DHT22;9755;47.790;9.620;2022-12-20T01:55:00;-1.10;99.90
19242;DHT22;9755;47.790;9.620;2022-12-20T01:57:33;-1.10;99.90
19242;DHT22;9755;47.790;9.620;2022-12-20T02:00:04;-1.10;99.90
19242;DHT22;9755;47.790;9.620;2022-12-20T02:02:33;-1.10;99.90
19242;DHT22;9755;47.790;9.620;2022-12-20T02:05:00;-1.10;99.90
19242;DHT22;9755;47.790;9.620;2022-12-20T02:07:30;-1.10;99.90
19242;DHT22;9755;47.790;9.620;2022-12-20T02:09:59;-1.10;99.90
19242;DHT22;9755;47.790;9.620;2022-12-20T02:12:31;-1.10;99.90
19242;DHT22;9755;47.790;9.620;2022-12-20T02:15:11;-1.20;99.90
19242;DHT22;9755;47.790;9.620;2022-12-20T02:17:51;-1.20;99.90
19242;DHT22;9755;47.790;9.620;2022-12-20T02:20:48;-1.10;99.90
19242;DHT22;9755;47.790;9.620;2022-12-20T02:23:34;-1.10;99.90
19242;DHT22;9755;47.790;9.620;2022-12-20T02:26:20;-1.00;99.90
19242;DHT22;9755;47.790;9.620;2022-12-20T02:29:06;-1.00;99.90
19242;DHT22;9755;47.790;9.620;2022-12-20T02:31:40;-0.90;99.90
19242;DHT22;9755;47.790;9.620;2022-12-20T02:34:09;-0.90;99.90
19242;DHT22;9755;47.790;9.620;2022-12-20T02:36:38;-0.90;99.90
19242;DHT22;9755;47.790;9.620;2022-12-20T02:39:05;-0.90;99.90
19242;DHT22;9755;47.790;9.620;2022-12-20T02:41:35;-0.80;99.90
19242;DHT22;9755;47.790;9.620;2022-12-20T02:44:09;-0.80;99.90
19242;DHT22;9755;47.790;9.620;2022-12-20T02:46:57;-0.80;99.90
19242;DHT22;9755;47.790;9.620;2022-12-20T02:49:29;-0.80;99.90
19242;DHT22;9755;47.790;9.620;2022-12-20T02:51:59;-0.80;99.90
19242;DHT22;9755;47.790;9.620;2022-12-20T02:54:28;-0.70;99.90
19242;DHT22;9755;47.790;9.620;2022-12-20T02:56:59;-0.70;99.90
19242;DHT22;9755;47.790;9.620;2022-12-20T02:59:31;-0.70;99.90
19242;DHT22;9755;47.790;9.620;2022-12-20T03:02:03;-0.70;99.90
19242;DHT22;9755;47.790;9.620;2022-12-20T03:04:34;-0.70;99.90
19242;DHT22;9755;47.790;9.620;2022-12-20T03:07:06;-0.60;99.90
19242;DHT22;9755;47.790;9.620;2022-12-20T03:09:36;-0.60;99.90
19242;DHT22;9755;47.790;9.620;2022-12-20T03:12:04;-0.70;99.90
19242;DHT22;9755;47.790;9.620;2022-12-20T03:14:31;-0.60;99.90
19242;DHT22;9755;47.790;9.620;2022-12-20T03:16:58;-0.60;99.90
19242;DHT22;9755;47.790;9.620;2022-12-20T03:19:27;-0.60;99.90
19242;DHT22;9755;47.790;9.620;2022-12-20T03:21:54;-0.50;99.90
19242;DHT22;9755;47.790;9.620;2022-12-20T03:24:21;-0.50;99.90
19242;DHT22;9755;47.790;9.620;2022-12-20T03:26:48;-0.60;99.90
19242;DHT22;9755;47.790;9.620;2022-12-20T03:29:15;-0.60;99.90
19242;DHT22;9755;47.790;9.620;2022-12-20T03:31:42;-0.70;99.90
19242;DHT22;9755;47.790;9.620;2022-12-20T03:34:09;-0.80;99.90
19242;DHT22;9755;47.790;9.620;2022-12-20T03:36:38;-0.80;99.90
19242;DHT22;9755;47.790;9.620;2022-12-20T03:39:05;-0.80;99.90
19242;DHT22;9755;47.790;9.620;2022-12-20T03:41:32;-0.70;99.90
19242;DHT22;9755;47.790;9.620;2022-12-20T03:43:59;-0.70;99.90
19242;DHT22;9755;47.790;9.620;2022-12-20T03:46:26;-0.70;99.90
19242;DHT22;9755;47.790;9.620;2022-12-20T03:48:53;-0.60;99.90
19242;DHT22;9755;47.790;9.620;2022-12-20T03:51:20;-0.60;99.90
19242;DHT22;9755;47.790;9.620;2022-12-20T03:53:49;-0.70;99.90
19242;DHT22;9755;47.790;9.620;2022-12-20T03:56:16;-0.70;99.90
19242;DHT22;9755;47.790;9.620;2022-12-20T03:58:43;-0.70;99.90
19242;DHT22;9755;47.790;9.620;2022-12-20T04:01:22;-0.70;99.90
19242;DHT22;9755;47.790;9.620;2022-12-20T04:03:49;-0.60;99.90
19242;DHT22;9755;47.790;9.620;2022-12-20T04:06:17;-0.60;99.90
19242;DHT22;9755;47.790;9.620;2022-12-20T04:08:44;-0.60;99.90
19242;DHT22;9755;47.790;9.620;2022-12-20T04:11:13;-0.60;99.90
19242;DHT22;9755;47.790;9.620;2022-12-20T04:13:43;-0.60;99.90
19242;DHT22;9755;47.790;9.620;2022-12-20T04:16:10;-0.60;99.90
19242;DHT22;9755;47.790;9.620;2022-12-20T04:18:37;-0.60;99.90
19242;DHT22;9755;47.790;9.620;2022-12-20T04:21:05;-0.60;99.90
19242;DHT22;9755;47.790;9.620;2022-12-20T04:23:33;-0.60;99.90
19242;DHT22;9755;47.790;9.620;2022-12-20T04:26:01;-0.70;99.90
19242;DHT22;9755;47.790;9.620;2022-12-20T04:28:30;-0.70;99.90
19242;DHT22;9755;47.790;9.620;2022-12-20T04:30:57;-0.70;99.90
19242;DHT22;9755;47.790;9.620;2022-12-20T04:33:26;-0.70;99.90
19242;DHT22;9755;47.790;9.620;2022-12-20T04:35:54;-0.70;99.90
19242;DHT22;9755;47.790;9.620;2022-12-20T04:38:22;-0.70;99.90
19242;DHT22;9755;47.790;9.620;2022-12-20T04:40:50;-0.70;99.90
19242;DHT22;9755;47.790;9.620;2022-12-20T04:43:17;-0.70;99.90
19242;DHT22;9755;47.790;9.620;2022-12-20T04:45:48;-0.60;99.90
19242;DHT22;9755;47.790;9.620;2022-12-20T04:48:17;-0.70;99.90
19242;DHT22;9755;47.790;9.620;2022-12-20T04:50:47;-0.70;99.90
19242;DHT22;9755;47.790;9.620;2022-12-20T04:53:14;-0.80;99.90
19242;DHT22;9755;47.790;9.620;2022-12-20T04:55:59;-0.80;99.90
19242;DHT22;9755;47.790;9.620;2022-12-20T04:58:27;-0.80;99.90
19242;DHT22;9755;47.790;9.620;2022-12-20T05:00:55;-0.70;99.90
19242;DHT22;9755;47.790;9.620;2022-12-20T05:03:23;-0.70;99.90
19242;DHT22;9755;47.790;9.620;2022-12-20T05:05:52;-0.70;99.90
19242;DHT22;9755;47.790;9.620;2022-12-20T05:08:19;-0.70;99.90
19242;DHT22;9755;47.790;9.620;2022-12-20T05:10:47;-0.60;99.90
19242;DHT22;9755;47.790;9.620;2022-12-20T05:13:14;-0.60;99.90
19242;DHT22;9755;47.790;9.620;2022-12-20T05:15:41;-0.60;99.90
19242;DHT22;9755;47.790;9.620;2022-12-20T05:18:10;-0.60;99.90
19242;DHT22;9755;47.790;9.620;2022-12-20T05:20:37;-0.50;99.90
19242;DHT22;9755;47.790;9.620;2022-12-20T05:23:04;-0.50;99.90
19242;DHT22;9755;47.790;9.620;2022-12-20T05:25:49;-0.50;99.90
19242;DHT22;9755;47.790;9.620;2022-12-20T05:28:35;-0.50;99.90
19242;DHT22;9755;47.790;9.620;2022-12-20T05:31:02;-0.40;99.90
19242;DHT22;9755;47.790;9.620;2022-12-20T05:33:30;-0.40;99.90
19242;DHT22;9755;47.790;9.620;2022-12-20T05:36:06;-0.30;99.90
19242;DHT22;9755;47.790;9.620;2022-12-20T05:38:33;-0.30;99.90
19242;DHT22;9755;47.790;9.620;2022-12-20T05:41:01;-0.30;99.90
19242;DHT22;9755;47.790;9.620;2022-12-20T05:43:29;-0.30;99.90
19242;DHT22;9755;47.790;9.620;2022-12-20T05:45:56;-0.30;99.90
19242;DHT22;9755;47.790;9.620;2022-12-20T05:48:23;-0.30;99.90
19242;DHT22;9755;47.790;9.620;2022-12-20T05:50:52;-0.30;99.90
19242;DHT22;9755;47.790;9.620;2022-12-20T05:53:19;-0.30;99.90
19242;DHT22;9755;47.790;9.620;2022-12-20T05:55:48;-0.30;99.90
19242;DHT22;9755;47.790;9.620;2022-12-20T05:58:16;-0.30;99.90
19242;DHT22;9755;47.790;9.620;2022-12-20T06:00:44;-0.20;99.90
19242;DHT22;9755;47.790;9.620;2022-12-20T06:03:12;-0.30;99.90
19242;DHT22;9755;47.790;9.620;2022-12-20T06:05:40;-0.20;99.90
19242;DHT22;9755;47.790;9.620;2022-12-20T06:08:09;-0.20;99.90
19242;DHT22;9755;47.790;9.620;2022-12-20T06:10:36;-0.10;99.90
19242;DHT22;9755;47.790;9.620;2022-12-20T06:13:05;-0.10;99.90
19242;DHT22;9755;47.790;9.620;2022-12-20T06:15:32;-0.10;99.90
19242;DHT22;9755;47.790;9.620;2022-12-20T06:17:59;-0.10;99.90
19242;DHT22;9755;47.790;9.620;2022-12-20T06:20:26;-0.10;99.90
19242;DHT22;9755;47.790;9.620;2022-12-20T06:22:54;-0.10;99.90
19242;DHT22;9755;47.790;9.620;2022-12-20T06:25:22;-0.20;99.90
19242;DHT22;9755;47.790;9.620;2022-12-20T06:27:50;-0.20;99.90
19242;DHT22;9755;47.790;9.620;2022-12-20T06:30:18;-0.30;99.90
19242;DHT22;9755;47.790;9.620;2022-12-20T06:32:45;-0.30;99.90
19242;DHT22;9755;47.790;9.620;2022-12-20T06:35:12;-0.30;99.90
19242;DHT22;9755;47.790;9.620;2022-12-20T06:37:40;-0.30;99.90
19242;DHT22;9755;47.790;9.620;2022-12-20T06:40:08;-0.30;99.90
19242;DHT22;9755;47.790;9.620;2022-12-20T06:42:37;-0.20;99.90
19242;DHT22;9755;47.790;9.620;2022-12-20T06:45:06;-0.20;99.90
19242;DHT22;9755;47.790;9.620;2022-12-20T06:47:33;-0.30;99.90
19242;DHT22;9755;47.790;9.620;2022-12-20T06:50:00;-0.20;99.90
19242;DHT22;9755;47.790;9.620;2022-12-20T06:52:27;-0.10;99.90
19242;DHT22;9755;47.790;9.620;2022-12-20T06:54:54;-0.10;99.90
19242;DHT22;9755;47.790;9.620;2022-12-20T06:57:21;-0.10;99.90
19242;DHT22;9755;47.790;9.620;2022-12-20T06:59:50;-0.10;99.90
19242;DHT22;9755;47.790;9.620;2022-12-20T07:02:17;-0.10;99.90
19242;DHT22;9755;47.790;9.620;2022-12-20T07:04:44;0.00;99.90
19242;DHT22;9755;47.790;9.620;2022-12-20T07:07:11;0.00;99.90
19242;DHT22;9755;47.790;9.620;2022-12-20T07:09:38;0.00;99.90
19242;DHT22;9755;47.790;9.620;2022-12-20T07:12:07;0.00;99.90
19242;DHT22;9755;47.790;9.620;2022-12-20T07:14:34;-0.10;99.90
19242;DHT22;9755;47.790;9.620;2022-12-20T07:17:03;-0.20;99.90
19242;DHT22;9755;47.790;9.620;2022-12-20T07:19:30;-0.30;99.90
19242;DHT22;9755;47.790;9.620;2022-12-20T07:21:57;-0.30;99.90
19242;DHT22;9755;47.790;9.620;2022-12-20T07:24:24;-0.40;99.90
19242;DHT22;9755;47.790;9.620;2022-12-20T07:26:51;-0.50;99.90
19242;DHT22;9755;47.790;9.620;2022-12-20T07:29:18;-0.50;99.90
19242;DHT22;9755;47.790;9.620;2022-12-20T07:31:45;-0.60;99.90
19242;DHT22;9755;47.790;9.620;2022-12-20T07:34:14;-0.50;99.90
19242;DHT22;9755;47.790;9.620;2022-12-20T07:36:41;-0.50;99.90
19242;DHT22;9755;47.790;9.620;2022-12-20T07:39:08;-0.40;99.90
19242;DHT22;9755;47.790;9.620;2022-12-20T07:41:35;-0.30;99.90
19242;DHT22;9755;47.790;9.620;2022-12-20T07:44:03;-0.20;99.90
19242;DHT22;9755;47.790;9.620;2022-12-20T07:46:30;-0.10;99.90
19242;DHT22;9755;47.790;9.620;2022-12-20T07:48:57;0.00;99.90
19242;DHT22;9755;47.790;9.620;2022-12-20T07:51:30;0.00;99.90
19242;DHT22;9755;47.790;9.620;2022-12-20T07:54:00;0.10;99.90
19242;DHT22;9755;47.790;9.620;2022-12-20T07:56:29;0.20;99.90
19242;DHT22;9755;47.790;9.620;2022-12-20T07:58:59;0.20;99.90
19242;DHT22;9755;47.790;9.620;2022-12-20T08:01:28;0.20;99.90
19242;DHT22;9755;47.790;9.620;2022-12-20T08:04:02;0.30;99.90
19242;DHT22;9755;47.790;9.620;2022-12-20T08:06:31;0.30;99.90
19242;DHT22;9755;47.790;9.620;2022-12-20T08:09:03;0.30;99.90
19242;DHT22;9755;47.790;9.620;2022-12-20T08:11:32;0.30;99.90
19242;DHT22;9755;47.790;9.620;2022-12-20T08:14:00;0.30;99.90
19242;DHT22;9755;47.790;9.620;2022-12-20T08:16:28;0.40;99.90
19242;DHT22;9755;47.790;9.620;2022-12-20T08:18:55;0.50;99.90
19242;DHT22;9755;47.790;9.620;2022-12-20T08:21:22;0.60;99.90
19242;DHT22;9755;47.790;9.620;2022-12-20T08:23:51;0.40;99.90
19242;DHT22;9755;47.790;9.620;2022-12-20T08:26:18;0.40;99.90
19242;DHT22;9755;47.790;9.620;2022-12-20T08:28:45;0.40;99.90
19242;DHT22;9755;47.790;9.620;2022-12-20T08:31:12;0.50;99.90
19242;DHT22;9755;47.790;9.620;2022-12-20T08:33:40;0.60;99.90
19242;DHT22;9755;47.790;9.620;2022-12-20T08:36:09;0.60;99.90
19242;DHT22;9755;47.790;9.620;2022-12-20T08:38:36;0.70;99.90
19242;DHT22;9755;47.790;9.620;2022-12-20T08:41:07;0.70;99.90
19242;DHT22;9755;47.790;9.620;2022-12-20T08:43:36;0.80;99.90
19242;DHT22;9755;47.790;9.620;2022-12-20T08:46:04;1.00;99.90
19242;DHT22;9755;47.790;9.620;2022-12-20T08:48:32;1.10;99.90
19242;DHT22;9755;47.790;9.620;2022-12-20T08:51:01;1.20;99.90
19242;DHT22;9755;47.790;9.620;2022-12-20T08:53:29;1.20;99.90
19242;DHT22;9755;47.790;9.620;2022-12-20T08:56:03;1.20;99.90
19242;DHT22;9755;47.790;9.620;2022-12-20T08:58:32;1.30;99.90
19242;DHT22;9755;47.790;9.620;2022-12-20T09:01:00;1.20;99.90
19242;DHT22;9755;47.790;9.620;2022-12-20T09:03:29;1.20;99.90
19242;DHT22;9755;47.790;9.620;2022-12-20T09:05:57;1.40;99.90
19242;DHT22;9755;47.790;9.620;2022-12-20T09:08:25;1.40;99.90
19242;DHT22;9755;47.790;9.620;2022-12-20T09:10:52;1.40;99.90
19242;DHT22;9755;47.790;9.620;2022-12-20T09:13:19;1.40;99.90
19242;DHT22;9755;47.790;9.620;2022-12-20T09:15:48;1.50;99.90
19242;DHT22;9755;47.790;9.620;2022-12-20T09:18:15;1.50;99.90
19242;DHT22;9755;47.790;9.620;2022-12-20T09:20:43;1.60;99.90
19242;DHT22;9755;47.790;9.620;2022-12-20T09:23:11;1.60;99.90
19242;DHT22;9755;47.790;9.620;2022-12-20T09:25:38;1.70;99.90
19242;DHT22;9755;47.790;9.620;2022-12-20T09:28:05;1.80;99.90
19242;DHT22;9755;47.790;9.620;2022-12-20T09:30:32;1.80;99.90
19242;DHT22;9755;47.790;9.620;2022-12-20T09:33:00;1.80;99.90
19242;DHT22;9755;47.790;9.620;2022-12-20T09:35:27;2.00;99.90
19242;DHT22;9755;47.790;9.620;2022-12-20T09:37:54;2.00;99.90
19242;DHT22;9755;47.790;9.620;2022-12-20T09:40:24;2.20;99.90
19242;DHT22;9755;47.790;9.620;2022-12-20T09:42:52;2.30;99.90
19242;DHT22;9755;47.790;9.620;2022-12-20T09:45:24;2.40;99.90
19242;DHT22;9755;47.790;9.620;2022-12-20T09:47:51;2.50;99.90
19242;DHT22;9755;47.790;9.620;2022-12-20T09:50:28;2.40;99.90
19242;DHT22;9755;47.790;9.620;2022-12-20T09:53:08;2.40;99.90
19242;DHT22;9755;47.790;9.620;2022-12-20T09:55:44;2.70;99.90
19242;DHT22;9755;47.790;9.620;2022-12-20T09:58:31;3.00;99.90
19242;DHT22;9755;47.790;9.620;2022-12-20T10:01:13;3.50;99.90
19242;DHT22;9755;47.790;9.620;2022-12-20T10:03:41;4.20;99.90
19242;DHT22;9755;47.790;9.620;2022-12-20T10:06:15;4.70;99.90
19242;DHT22;9755;47.790;9.620;2022-12-20T10:08:50;5.00;99.90
19242;DHT22;9755;47.790;9.620;2022-12-20T10:11:38;5.00;1.00
19242;DHT22;9755;47.790;9.620;2022-12-20T10:14:14;4.90;1.00
19242;DHT22;9755;47.790;9.620;2022-12-20T10:16:45;4.40;99.90
19242;DHT22;9755;47.790;9.620;2022-12-20T10:19:25;4.20;1.00
19242;DHT22;9755;47.790;9.620;2022-12-20T10:22:04;4.10;1.00
19242;DHT22;9755;47.790;9.620;2022-12-20T10:24:34;4.40;1.00
19242;DHT22;9755;47.790;9.620;2022-12-20T10:27:08;4.50;1.00
19242;DHT22;9755;47.790;9.620;2022-12-20T10:29:37;4.60;1.00
19242;DHT22;9755;47.790;9.620;2022-12-20T10:32:11;4.60;1.00
19242;DHT22;9755;47.790;9.620;2022-12-20T10:34:40;4.60;1.00
19242;DHT22;9755;47.790;9.620;2022-12-20T10:37:12;4.30;1.00
19242;DHT22;9755;47.790;9.620;2022-12-20T10:39:40;4.20;99.90
19242;DHT22;9755;47.790;9.620;2022-12-20T10:42:23;4.20;99.90
19242;DHT22;9755;47.790;9.620;2022-12-20T10:44:51;4.10;1.00
19242;DHT22;9755;47.790;9.620;2022-12-20T10:47:28;4.20;99.90
19242;DHT22;9755;47.790;9.620;2022-12-20T10:50:08;4.00;99.90
19242;DHT22;9755;47.790;9.620;2022-12-20T10:52:37;3.90;65.60
19242;DHT22;9755;47.790;9.620;2022-12-20T10:55:32;3.80;99.90
19242;DHT22;9755;47.790;9.620;2022-12-20T10:58:05;3.70;1.00
19242;DHT22;9755;47.790;9.620;2022-12-20T11:00:33;3.60;99.90
19242;DHT22;9755;47.790;9.620;2022-12-20T11:03:10;3.70;1.00
19242;DHT22;9755;47.790;9.620;2022-12-20T11:05:38;3.80;1.00
19242;DHT22;9755;47.790;9.620;2022-12-20T11:08:13;3.80;18.30
19242;DHT22;9755;47.790;9.620;2022-12-20T11:10:41;3.90;1.00
19242;DHT22;9755;47.790;9.620;2022-12-20T11:13:19;4.00;67.50
19242;DHT22;9755;47.790;9.620;2022-12-20T11:15:48;4.00;1.00
19242;DHT22;9755;47.790;9.620;2022-12-20T11:18:21;4.00;1.00
19242;DHT22;9755;47.790;9.620;2022-12-20T11:20:53;3.90;1.00
19242;DHT22;9755;47.790;9.620;2022-12-20T11:23:26;3.90;99.90
19242;DHT22;9755;47.790;9.620;2022-12-20T11:26:07;3.90;1.00
19242;DHT22;9755;47.790;9.620;2022-12-20T11:28:50;3.90;1.00
19242;DHT22;9755;47.790;9.620;2022-12-20T11:31:27;3.80;5.80
19242;DHT22;9755;47.790;9.620;2022-12-20T11:34:07;3.90;99.90
19242;DHT22;9755;47.790;9.620;2022-12-20T11:36:56;4.00;99.90
19242;DHT22;9755;47.790;9.620;2022-12-20T11:39:33;4.20;1.00
19242;DHT22;9755;47.790;9.620;2022-12-20T11:42:04;4.30;99.90
19242;DHT22;9755;47.790;9.620;2022-12-20T11:44:48;4.30;1.00
19242;DHT22;9755;47.790;9.620;2022-12-20T11:47:35;4.30;1.00
19242;DHT22;9755;47.790;9.620;2022-12-20T11:50:24;4.30;1.00
19242;DHT22;9755;47.790;9.620;2022-12-20T11:52:59;4.30;1.00
19242;DHT22;9755;47.790;9.620;2022-12-20T11:55:32;4.40;1.00
19242;DHT22;9755;47.790;9.620;2022-12-20T11:58:03;4.40;1.00
19242;DHT22;9755;47.790;9.620;2022-12-20T12:00:31;4.50;1.00
19242;DHT22;9755;47.790;9.620;2022-12-20T12:03:04;4.50;1.00
19242;DHT22;9755;47.790;9.620;2022-12-20T12:05:40;4.50;99.90
19242;DHT22;9755;47.790;9.620;2022-12-20T12:08:12;4.60;1.00
19242;DHT22;9755;47.790;9.620;2022-12-20T12:10:48;4.50;99.90
19242;DHT22;9755;47.790;9.620;2022-12-20T12:13:22;4.70;1.00
19242;DHT22;9755;47.790;9.620;2022-12-20T12:15:56;4.90;1.00
19242;DHT22;9755;47.790;9.620;2022-12-20T12:18:26;5.00;1.00
19242;DHT22;9755;47.790;9.620;2022-12-20T12:21:00;4.70;1.00
19242;DHT22;9755;47.790;9.620;2022-12-20T12:23:37;4.60;1.00
19242;DHT22;9755;47.790;9.620;2022-12-20T12:26:12;4.70;99.90
19242;DHT22;9755;47.790;9.620;2022-12-20T12:28:41;4.80;99.90
19242;DHT22;9755;47.790;9.620;2022-12-20T12:31:11;4.80;1.00
19242;DHT22;9755;47.790;9.620;2022-12-20T12:33:44;4.90;99.90
19242;DHT22;9755;47.790;9.620;2022-12-20T12:36:45;4.80;99.90
19242;DHT22;9755;47.790;9.620;2022-12-20T12:39:36;4.70;99.90
19242;DHT22;9755;47.790;9.620;2022-12-20T12:45:03;4.40;1.00
19242;DHT22;9755;47.790;9.620;2022-12-20T12:47:36;4.30;1.00
19242;DHT22;9755;47.790;9.620;2022-12-20T12:50:08;4.10;11.20
19242;DHT22;9755;47.790;9.620;2022-12-20T12:52:44;4.00;99.90
19242;DHT22;9755;47.790;9.620;2022-12-20T12:55:37;4.00;1.00
19242;DHT22;9755;47.790;9.620;2022-12-20T12:58:31;3.90;1.00
19242;DHT22;9755;47.790;9.620;2022-12-20T13:01:00;3.90;99.90
19242;DHT22;9755;47.790;9.620;2022-12-20T13:06:59;3.90;1.00
19242;DHT22;9755;47.790;9.620;2022-12-20T13:09:38;3.80;99.90
19242;DHT22;9755;47.790;9.620;2022-12-20T13:15:52;3.90;71.40
19242;DHT22;9755;47.790;9.620;2022-12-20T13:18:31;4.00;99.90
19242;DHT22;9755;47.790;9.620;2022-12-20T13:21:23;4.00;99.90
19242;DHT22;9755;47.790;9.620;2022-12-20T13:27:03;4.00;99.90
19242;DHT22;9755;47.790;9.620;2022-12-20T13:29:34;4.10;99.90
19242;DHT22;9755;47.790;9.620;2022-12-20T13:35:27;4.10;99.90
19242;DHT22;9755;47.790;9.620;2022-12-20T13:37:56;4.00;1.00
19242;DHT22;9755;47.790;9.620;2022-12-20T13:40:32;3.80;1.00
19242;DHT22;9755;47.790;9.620;2022-12-20T13:43:05;3.80;1.00
19242;DHT22;9755;47.790;9.620;2022-12-20T13:45:35;3.70;1.00
19242;DHT22;9755;47.790;9.620;2022-12-20T13:48:06;3.80;99.90
19242;DHT22;9755;47.790;9.620;2022-12-20T13:50:39;3.90;99.90
19242;DHT22;9755;47.790;9.620;2022-12-20T13:53:15;3.90;99.90
19242;DHT22;9755;47.790;9.620;2022-12-20T13:55:44;4.10;1.00
19242;DHT22;9755;47.790;9.620;2022-12-20T13:58:13;4.20;39.10
19242;DHT22;9755;47.790;9.620;2022-12-20T14:00:43;4.20;1.00
19242;DHT22;9755;47.790;9.620;2022-12-20T14:03:21;4.30;39.80
19242;DHT22;9755;47.790;9.620;2022-12-20T14:05:50;4.50;1.00
19242;DHT22;9755;47.790;9.620;2022-12-20T14:08:20;4.90;1.00
19242;DHT22;9755;47.790;9.620;2022-12-20T14:10:51;5.20;99.90
19242;DHT22;9755;47.790;9.620;2022-12-20T14:13:23;5.50;1.00
19242;DHT22;9755;47.790;9.620;2022-12-20T14:15:51;5.70;99.80
19242;DHT22;9755;47.790;9.620;2022-12-20T14:18:21;5.90;1.00
19242;DHT22;9755;47.790;9.620;2022-12-20T14:20:50;5.80;99.90
19242;DHT22;9755;47.790;9.620;2022-12-20T14:23:20;5.80;99.90
19242;DHT22;9755;47.790;9.620;2022-12-20T14:25:49;5.70;1.00
19242;DHT22;9755;47.790;9.620;2022-12-20T14:28:29;5.70;99.90
19242;DHT22;9755;47.790;9.620;2022-12-20T14:30:58;5.60;99.90
19242;DHT22;9755;47.790;9.620;2022-12-20T14:33:30;5.60;99.90
19242;DHT22;9755;47.790;9.620;2022-12-20T14:36:08;5.40;70.40
19242;DHT22;9755;47.790;9.620;2022-12-20T14:38:36;5.40;99.90
19242;DHT22;9755;47.790;9.620;2022-12-20T14:41:23;5.20;99.90
19242;DHT22;9755;47.790;9.620;2022-12-20T14:43:54;5.10;1.00
19242;DHT22;9755;47.790;9.620;2022-12-20T14:46:22;4.90;41.30
19242;DHT22;9755;47.790;9.620;2022-12-20T14:49:06;4.90;1.00
19242;DHT22;9755;47.790;9.620;2022-12-20T14:51:37;4.70;1.00
19242;DHT22;9755;47.790;9.620;2022-12-20T14:54:05;4.50;43.90
19242;DHT22;9755;47.790;9.620;2022-12-20T14:56:32;4.40;99.90
19242;DHT22;9755;47.790;9.620;2022-12-20T14:59:05;4.30;99.90
19242;DHT22;9755;47.790;9.620;2022-12-20T15:01:37;4.10;1.00
19242;DHT22;9755;47.790;9.620;2022-12-20T15:04:22;4.00;99.90
19242;DHT22;9755;47.790;9.620;2022-12-20T15:06:50;3.90;1.00
19242;DHT22;9755;47.790;9.620;2022-12-20T15:09:18;3.80;66.00
19242;DHT22;9755;47.790;9.620;2022-12-20T15:11:46;3.80;99.90
19242;DHT22;9755;47.790;9.620;2022-12-20T15:14:21;3.70;1.00
19242;DHT22;9755;47.790;9.620;2022-12-20T15:16:50;3.70;1.00
19242;DHT22;9755;47.790;9.620;2022-12-20T15:19:17;3.60;1.00
19242;DHT22;9755;47.790;9.620;2022-12-20T15:21:46;3.80;1.00
19242;DHT22;9755;47.790;9.620;2022-12-20T15:24:15;3.80;1.00
19242;DHT22;9755;47.790;9.620;2022-12-20T15:26:44;3.80;1.00
19242;DHT22;9755;47.790;9.620;2022-12-20T15:29:14;3.70;1.00
19242;DHT22;9755;47.790;9.620;2022-12-20T15:31:43;3.60;1.00
19242;DHT22;9755;47.790;9.620;2022-12-20T15:34:13;3.60;1.00
19242;DHT22;9755;47.790;9.620;2022-12-20T15:36:41;3.50;1.00
19242;DHT22;9755;47.790;9.620;2022-12-20T15:39:11;3.30;1.00
19242;DHT22;9755;47.790;9.620;2022-12-20T15:41:40;3.20;1.00
19242;DHT22;9755;47.790;9.620;2022-12-20T15:44:12;3.00;1.00
19242;DHT22;9755;47.790;9.620;2022-12-20T15:46:40;2.90;1.00
19242;DHT22;9755;47.790;9.620;2022-12-20T15:49:13;2.90;99.90
19242;DHT22;9755;47.790;9.620;2022-12-20T15:51:40;2.90;99.90
19242;DHT22;9755;47.790;9.620;2022-12-20T15:54:19;2.80;99.90
19242;DHT22;9755;47.790;9.620;2022-12-20T15:56:48;2.70;99.90
19242;DHT22;9755;47.790;9.620;2022-12-20T15:59:15;2.50;99.90
19242;DHT22;9755;47.790;9.620;2022-12-20T16:04:35;2.30;99.90
19242;DHT22;9755;47.790;9.620;2022-12-20T16:07:02;2.40;99.90
19242;DHT22;9755;47.790;9.620;2022-12-20T16:09:30;2.30;99.90
19242;DHT22;9755;47.790;9.620;2022-12-20T16:11:57;2.30;99.90
19242;DHT22;9755;47.790;9.620;2022-12-20T16:14:24;2.20;99.90
19242;DHT22;9755;47.790;9.620;2022-12-20T16:16:52;2.10;99.90
19242;DHT22;9755;47.790;9.620;2022-12-20T16:19:19;2.00;99.90
19242;DHT22;9755;47.790;9.620;2022-12-20T16:21:47;2.00;99.90
19242;DHT22;9755;47.790;9.620;2022-12-20T16:24:16;2.00;99.90
19242;DHT22;9755;47.790;9.620;2022-12-20T16:26:45;2.00;99.90
19242;DHT22;9755;47.790;9.620;2022-12-20T16:29:12;2.10;99.90
19242;DHT22;9755;47.790;9.620;2022-12-20T16:31:41;2.10;99.90
19242;DHT22;9755;47.790;9.620;2022-12-20T16:34:12;2.20;99.90
19242;DHT22;9755;47.790;9.620;2022-12-20T16:36:39;2.20;99.90
19242;DHT22;9755;47.790;9.620;2022-12-20T16:39:06;2.10;99.90